createdAt,value
2022-08-22T00:00:59.027Z,21.50
2022-08-22T00:02:43.110Z,23.00
2022-08-22T00:02:53.604Z,23.20
2022-08-22T00:02:55.262Z,22.20
2022-08-22T00:03:02.618Z,22.70
2022-08-22T00:03:19.104Z,21.60
2022-08-22T00:05:27.808Z,21.60
2022-08-22T00:07:35.726Z,21.60
2022-08-22T00:09:35.491Z,21.70
2022-08-22T00:11:39.957Z,21.70
2022-08-22T00:13:40.717Z,21.70
2022-08-22T00:15:43.312Z,21.60
2022-08-22T00:17:46.855Z,21.60
2022-08-22T00:19:51.193Z,21.60
2022-08-22T00:21:52.649Z,21.60
2022-08-22T00:23:50.458Z,21.60
2022-08-22T00:25:56.123Z,21.50
2022-08-22T00:27:53.704Z,21.50
2022-08-22T00:29:50.740Z,21.40
2022-08-22T00:31:50.361Z,21.50
2022-08-22T00:33:50.860Z,21.50
2022-08-22T00:35:47.648Z,21.60
2022-08-22T00:37:44.764Z,21.60
2022-08-22T00:39:44.333Z,21.60
2022-08-22T00:42:12.408Z,21.60
2022-08-22T00:44:37.528Z,21.60
2022-08-22T00:47:00.580Z,21.60
2022-08-22T00:49:33.873Z,21.50
2022-08-22T00:52:03.387Z,21.50
2022-08-22T00:54:02.789Z,21.50
2022-08-22T00:56:19.171Z,21.60
2022-08-22T00:58:58.060Z,21.60
2022-08-22T01:00:55.240Z,21.70
2022-08-22T01:03:23.688Z,21.60
2022-08-22T01:05:41.252Z,21.60
2022-08-22T01:07:59.570Z,21.50
2022-08-22T01:10:10.647Z,21.50
2022-08-22T01:12:45.895Z,21.60
2022-08-22T01:14:54.422Z,21.50
2022-08-22T01:17:17.487Z,21.50
2022-08-22T01:19:49.673Z,21.60
2022-08-22T01:22:28.203Z,21.60
2022-08-22T01:25:26.028Z,21.60
2022-08-22T01:28:05.219Z,21.50
2022-08-22T01:30:33.722Z,21.50
2022-08-22T01:34:03.916Z,21.50
2022-08-22T01:36:26.718Z,21.50
2022-08-22T01:38:41.534Z,21.40
2022-08-22T01:41:21.346Z,21.50
2022-08-22T01:43:21.405Z,21.60
2022-08-22T01:46:14.862Z,21.50
2022-08-22T01:48:19.720Z,21.50
2022-08-22T01:50:23.114Z,21.40
2022-08-22T01:52:19.755Z,21.40
2022-08-22T01:54:34.349Z,21.50
2022-08-22T01:56:31.635Z,21.50
2022-08-22T01:58:26.710Z,21.50
2022-08-22T02:00:20.789Z,21.30
2022-08-22T02:02:59.209Z,21.40
2022-08-22T02:05:01.329Z,21.40
2022-08-22T02:07:03.509Z,21.40
2022-08-22T02:09:06.720Z,21.40
2022-08-22T02:11:04.069Z,21.40
2022-08-22T02:13:06.122Z,21.40
2022-08-22T02:15:15.566Z,21.40
2022-08-22T02:17:19.006Z,21.40
2022-08-22T02:19:25.982Z,21.40
2022-08-22T02:21:24.100Z,21.40
2022-08-22T02:23:24.730Z,21.40
2022-08-22T02:25:23.305Z,21.40
2022-08-22T02:27:35.046Z,21.40
2022-08-22T02:29:35.714Z,21.40
2022-08-22T02:31:39.708Z,21.40
2022-08-22T02:33:38.377Z,21.40
2022-08-22T02:35:36.958Z,21.40
2022-08-22T02:37:37.769Z,21.30
2022-08-22T02:39:36.402Z,21.20
2022-08-22T02:41:35.785Z,21.20
2022-08-22T02:43:38.282Z,21.30
2022-08-22T02:45:37.485Z,21.20
2022-08-22T02:47:38.866Z,21.20
2022-08-22T02:49:43.902Z,21.20
2022-08-22T02:51:44.416Z,21.20
2022-08-22T02:53:48.034Z,21.10
2022-08-22T02:55:54.024Z,21.10
2022-08-22T02:58:00.820Z,21.20
2022-08-22T03:00:31.123Z,21.10
2022-08-22T03:02:34.226Z,21.10
2022-08-22T03:04:46.882Z,21.10
2022-08-22T03:06:42.459Z,21.10
2022-08-22T03:08:37.916Z,21.00
2022-08-22T03:10:47.538Z,21.10
2022-08-22T03:12:48.539Z,21.10
2022-08-22T03:14:47.697Z,21.10
2022-08-22T03:16:47.783Z,21.10
2022-08-22T03:18:48.461Z,21.00
2022-08-22T03:20:46.833Z,21.00
2022-08-22T03:22:46.214Z,21.10
2022-08-22T03:24:47.160Z,21.10
2022-08-22T03:26:49.170Z,21.10
2022-08-22T03:28:54.396Z,21.10
2022-08-22T03:31:07.120Z,21.10
2022-08-22T03:33:14.855Z,21.10
2022-08-22T03:35:11.926Z,21.00
2022-08-22T03:37:15.581Z,20.90
2022-08-22T03:39:16.544Z,20.90
2022-08-22T03:41:35.645Z,20.90
2022-08-22T03:44:00.732Z,20.80
2022-08-22T03:46:55.364Z,20.70
2022-08-22T03:49:33.565Z,20.60
2022-08-22T03:51:46.739Z,20.60
2022-08-22T03:54:33.124Z,20.60
2022-08-22T03:57:19.094Z,20.60
2022-08-22T04:00:03.718Z,20.60
2022-08-22T04:02:48.004Z,20.50
2022-08-22T04:05:24.547Z,20.50
2022-08-22T04:07:48.581Z,20.50
2022-08-22T04:10:02.966Z,20.40
2022-08-22T04:12:53.174Z,20.30
2022-08-22T04:15:26.803Z,20.40
2022-08-22T04:17:48.846Z,20.40
2022-08-22T04:20:27.179Z,20.40
2022-08-22T04:22:40.236Z,20.40
2022-08-22T04:24:53.680Z,20.40
2022-08-22T04:26:52.551Z,20.40
2022-08-22T04:28:49.977Z,20.40
2022-08-22T04:30:48.842Z,20.40
2022-08-22T04:32:45.419Z,20.40
2022-08-22T04:34:41.541Z,20.40
2022-08-22T04:36:40.657Z,20.40
2022-08-22T04:38:38.076Z,20.30
2022-08-22T04:40:36.055Z,20.20
2022-08-22T04:42:34.483Z,20.20
2022-08-22T04:44:35.875Z,20.30
2022-08-22T04:46:49.465Z,20.30
2022-08-22T04:48:47.737Z,20.30
2022-08-22T04:50:45.651Z,20.30
2022-08-22T04:52:53.217Z,20.30
2022-08-22T04:55:03.135Z,20.40
2022-08-22T04:57:25.553Z,20.30
2022-08-22T04:59:19.112Z,20.30
2022-08-22T05:01:16.164Z,20.30
2022-08-22T05:03:14.738Z,20.20
2022-08-22T05:05:13.836Z,20.20
2022-08-22T05:07:12.045Z,20.20
2022-08-22T05:09:11.807Z,20.30
2022-08-22T05:11:06.965Z,20.30
2022-08-22T05:13:02.864Z,20.20
2022-08-22T05:14:59.408Z,20.30
2022-08-22T05:16:56.164Z,20.20
2022-08-22T05:18:52.659Z,20.30
2022-08-22T05:20:47.754Z,20.30
2022-08-22T05:22:46.839Z,20.30
2022-08-22T05:24:42.317Z,20.30
2022-08-22T05:26:41.708Z,20.30
2022-08-22T05:28:37.819Z,20.40
2022-08-22T05:30:30.978Z,20.30
2022-08-22T05:32:27.446Z,20.20
2022-08-22T05:34:24.720Z,20.10
2022-08-22T05:36:21.963Z,20.20
2022-08-22T05:38:17.982Z,20.20
2022-08-22T05:40:18.885Z,20.30
2022-08-22T05:42:18.300Z,20.30
2022-08-22T05:44:19.704Z,20.20
2022-08-22T05:46:22.593Z,20.10
2022-08-22T05:48:22.024Z,20.10
2022-08-22T05:50:20.491Z,20.00
2022-08-22T05:52:40.126Z,20.00
2022-08-22T05:54:34.337Z,20.00
2022-08-22T05:56:38.181Z,20.00
2022-08-22T05:58:50.711Z,20.20
2022-08-22T06:00:46.047Z,20.30
2022-08-22T06:02:52.726Z,20.40
2022-08-22T06:04:52.599Z,20.40
2022-08-22T06:06:54.586Z,20.50
2022-08-22T06:08:55.551Z,20.50
2022-08-22T06:10:50.176Z,20.50
2022-08-22T06:12:49.883Z,20.50
2022-08-22T06:14:48.272Z,20.40
2022-08-22T06:16:48.738Z,20.50
2022-08-22T06:18:42.832Z,20.60
2022-08-22T06:20:51.487Z,20.70
2022-08-22T06:22:57.318Z,20.80
2022-08-22T06:24:50.868Z,20.80
2022-08-22T06:26:48.810Z,20.90
2022-08-22T06:28:54.486Z,21.00
2022-08-22T06:30:51.874Z,21.00
2022-08-22T06:32:59.951Z,20.90
2022-08-22T06:34:56.807Z,21.00
2022-08-22T06:36:51.249Z,21.00
2022-08-22T06:39:02.735Z,21.00
2022-08-22T06:40:54.953Z,21.00
2022-08-22T06:42:49.785Z,21.00
2022-08-22T06:44:51.826Z,20.90
2022-08-22T06:46:46.260Z,21.00
2022-08-22T06:48:37.653Z,21.00
2022-08-22T06:50:33.280Z,21.00
2022-08-22T06:52:28.275Z,21.00
2022-08-22T06:54:25.989Z,21.10
2022-08-22T06:56:23.520Z,21.10
2022-08-22T06:58:17.993Z,21.20
2022-08-22T07:00:14.868Z,21.20
2022-08-22T07:02:16.104Z,21.30
2022-08-22T07:04:09.969Z,21.30
2022-08-22T07:06:03.413Z,21.30
2022-08-22T07:07:57.353Z,21.30
2022-08-22T07:09:52.774Z,21.30
2022-08-22T07:11:44.003Z,21.40
2022-08-22T07:13:38.001Z,21.40
2022-08-22T07:15:34.388Z,21.40
2022-08-22T07:17:28.711Z,21.50
2022-08-22T07:19:25.938Z,21.50
2022-08-22T07:21:26.549Z,21.60
2022-08-22T07:23:30.693Z,21.60
2022-08-22T07:25:24.538Z,21.70
2022-08-22T07:27:31.090Z,21.70
2022-08-22T07:29:38.031Z,21.70
2022-08-22T07:31:36.659Z,21.70
2022-08-22T07:33:41.258Z,21.60
2022-08-22T07:35:41.020Z,21.70
2022-08-22T07:37:56.901Z,21.80
2022-08-22T07:39:55.710Z,21.80
2022-08-22T07:42:14.293Z,21.80
2022-08-22T07:44:19.802Z,21.80
2022-08-22T07:46:25.793Z,21.90
2022-08-22T07:48:26.754Z,22.00
2022-08-22T07:50:24.229Z,22.00
2022-08-22T07:52:16.869Z,22.10
2022-08-22T07:54:09.541Z,22.10
2022-08-22T07:56:02.835Z,22.10
2022-08-22T07:58:01.343Z,22.20
2022-08-22T07:59:59.170Z,22.30
2022-08-22T08:01:54.215Z,22.40
2022-08-22T08:03:53.594Z,22.40
2022-08-22T08:05:45.593Z,22.50
2022-08-22T08:07:43.529Z,22.50
2022-08-22T08:09:46.910Z,22.60
2022-08-22T08:11:43.022Z,22.70
2022-08-22T08:13:41.153Z,22.70
2022-08-22T08:15:37.335Z,22.70
2022-08-22T08:17:32.525Z,22.80
2022-08-22T08:19:24.017Z,22.80
2022-08-22T08:21:27.570Z,22.90
2022-08-22T08:23:46.391Z,23.00
2022-08-22T08:25:59.826Z,23.00
2022-08-22T08:27:51.633Z,23.00
2022-08-22T08:29:53.621Z,23.10
2022-08-22T08:31:45.167Z,23.10
2022-08-22T08:33:45.222Z,23.20
2022-08-22T08:36:01.942Z,23.20
2022-08-22T08:37:59.964Z,23.30
2022-08-22T08:39:56.775Z,23.30
2022-08-22T08:42:45.630Z,23.30
2022-08-22T08:45:04.673Z,23.40
2022-08-22T08:47:27.391Z,23.50
2022-08-22T08:50:09.565Z,23.60
2022-08-22T08:52:25.827Z,23.60
2022-08-22T08:54:57.383Z,23.70
2022-08-22T08:56:59.244Z,23.70
2022-08-22T08:59:03.189Z,23.70
2022-08-22T09:01:30.109Z,23.80
2022-08-22T09:03:59.540Z,23.80
2022-08-22T09:06:14.392Z,23.80
2022-08-22T09:08:33.892Z,23.90
2022-08-22T09:11:02.272Z,24.00
2022-08-22T09:16:15.798Z,24.20
2022-08-22T09:18:58.076Z,24.30
2022-08-22T09:21:30.705Z,24.40
2022-08-22T09:23:59.269Z,24.50
2022-08-22T09:25:54.603Z,24.50
2022-08-22T09:27:55.295Z,24.50
2022-08-22T09:29:55.484Z,24.60
2022-08-22T09:32:13.165Z,24.70
2022-08-22T09:34:13.245Z,24.80
2022-08-22T09:36:20.898Z,24.90
2022-08-22T09:38:38.732Z,24.90
2022-08-22T09:40:16.263Z,24.10
2022-08-22T09:40:39.370Z,25.00
2022-08-22T09:42:39.622Z,25.00
2022-08-22T09:44:46.556Z,24.90
2022-08-22T09:47:03.572Z,25.00
2022-08-22T09:49:06.683Z,25.10
2022-08-22T09:51:31.533Z,25.10
2022-08-22T09:53:44.192Z,25.20
2022-08-22T09:55:44.693Z,25.30
2022-08-22T09:57:41.740Z,25.30
2022-08-22T10:00:00.772Z,25.40
2022-08-22T10:01:59.356Z,25.40
2022-08-22T10:04:42.440Z,25.50
2022-08-22T10:06:51.708Z,25.50
2022-08-22T10:08:48.004Z,25.50
2022-08-22T10:11:03.205Z,25.50
2022-08-22T10:13:10.524Z,25.50
2022-08-22T10:15:16.697Z,25.50
2022-08-22T10:17:21.861Z,25.60
2022-08-22T10:19:22.714Z,25.60
2022-08-22T10:21:26.720Z,25.60
2022-08-22T10:23:24.072Z,25.70
2022-08-22T10:25:42.478Z,25.70
2022-08-22T10:27:50.485Z,25.80
2022-08-22T10:30:02.591Z,25.80
2022-08-22T10:32:01.344Z,25.80
2022-08-22T10:34:05.768Z,25.90
2022-08-22T10:36:06.226Z,26.00
2022-08-22T10:38:03.365Z,26.00
2022-08-22T10:40:03.640Z,26.00
2022-08-22T10:42:23.316Z,26.00
2022-08-22T10:44:19.505Z,26.10
2022-08-22T10:46:18.790Z,26.10
2022-08-22T10:48:45.323Z,26.10
2022-08-22T10:50:43.005Z,26.20
2022-08-22T10:52:45.443Z,26.30
2022-08-22T10:54:47.786Z,26.40
2022-08-22T10:56:48.675Z,26.50
2022-08-22T10:58:49.051Z,26.50
2022-08-22T11:00:50.618Z,26.50
2022-08-22T11:02:54.058Z,26.60
2022-08-22T11:05:17.375Z,26.60
2022-08-22T11:07:37.220Z,26.60
2022-08-22T11:09:39.204Z,26.70
2022-08-22T11:11:45.366Z,26.50
2022-08-22T11:13:46.961Z,26.30
2022-08-22T11:16:00.249Z,26.20
2022-08-22T11:18:19.703Z,26.30
2022-08-22T11:20:19.818Z,26.40
2022-08-22T11:22:29.785Z,26.60
2022-08-22T11:25:12.131Z,26.70
2022-08-22T11:27:14.626Z,26.90
2022-08-22T11:29:31.864Z,27.10
2022-08-22T11:31:47.222Z,27.20
2022-08-22T11:33:51.261Z,27.30
2022-08-22T11:35:50.517Z,27.40
2022-08-22T11:37:54.930Z,27.70
2022-08-22T11:40:04.188Z,27.90
2022-08-22T11:42:05.184Z,28.10
2022-08-22T11:44:07.033Z,28.30
2022-08-22T11:46:20.042Z,28.30
2022-08-22T11:48:21.607Z,28.20
2022-08-22T11:50:23.632Z,28.20
2022-08-22T11:52:29.161Z,28.20
2022-08-22T11:54:31.070Z,28.20
2022-08-22T11:56:31.187Z,28.10
2022-08-22T11:58:38.047Z,28.00
2022-08-22T12:00:37.995Z,27.90
2022-08-22T12:02:47.552Z,27.90
2022-08-22T12:04:42.648Z,28.00
2022-08-22T12:06:58.645Z,28.20
2022-08-22T12:09:31.460Z,28.30
2022-08-22T12:11:32.318Z,28.50
2022-08-22T12:13:49.755Z,28.60
2022-08-22T12:15:53.868Z,28.70
2022-08-22T12:18:43.808Z,28.80
2022-08-22T12:20:59.615Z,29.00
2022-08-22T12:23:43.148Z,29.00
2022-08-22T12:26:10.724Z,29.10
2022-08-22T12:28:21.401Z,28.90
2022-08-22T12:30:21.358Z,28.70
2022-08-22T12:33:31.191Z,28.70
2022-08-22T12:35:40.774Z,28.90
2022-08-22T12:37:52.837Z,29.20
2022-08-22T12:40:10.156Z,29.40
2022-08-22T12:42:39.652Z,29.70
2022-08-22T12:44:45.469Z,30.00
2022-08-22T12:46:51.604Z,30.10
2022-08-22T12:49:00.040Z,30.30
2022-08-22T12:50:56.951Z,30.50
2022-08-22T12:53:26.864Z,30.30
2022-08-22T12:55:36.052Z,30.20
2022-08-22T12:57:41.624Z,30.40
2022-08-22T12:59:39.688Z,30.50
2022-08-22T13:01:35.547Z,30.60
2022-08-22T13:03:31.889Z,30.60
2022-08-22T13:05:28.992Z,30.50
2022-08-22T13:07:31.506Z,30.60
2022-08-22T13:09:29.060Z,30.70
2022-08-22T13:11:23.685Z,30.80
2022-08-22T13:13:31.512Z,30.40
2022-08-22T13:15:29.701Z,30.60
2022-08-22T13:17:24.930Z,30.80
2022-08-22T13:19:21.374Z,30.90
2022-08-22T13:21:17.222Z,31.10
2022-08-22T13:23:17.740Z,31.20
2022-08-22T13:25:25.903Z,31.20
2022-08-22T13:27:24.753Z,31.30
2022-08-22T13:29:26.949Z,31.30
2022-08-22T13:31:25.501Z,31.30
2022-08-22T13:33:25.987Z,31.40
2022-08-22T13:35:24.631Z,31.50
2022-08-22T13:37:24.843Z,31.50
2022-08-22T13:39:26.869Z,31.20
2022-08-22T13:41:23.711Z,31.00
2022-08-22T13:43:20.984Z,30.90
2022-08-22T13:45:21.347Z,31.20
2022-08-22T13:47:17.970Z,31.40
2022-08-22T13:49:16.840Z,31.30
2022-08-22T13:51:16.187Z,31.40
2022-08-22T13:53:26.806Z,31.50
2022-08-22T13:55:27.637Z,31.40
2022-08-22T13:57:27.761Z,31.20
2022-08-22T13:59:50.978Z,31.10
2022-08-22T14:01:50.224Z,31.00
2022-08-22T14:03:48.579Z,30.70
2022-08-22T14:05:46.341Z,30.80
2022-08-22T14:07:53.428Z,30.90
2022-08-22T14:09:55.304Z,31.00
2022-08-22T14:11:51.035Z,31.00
2022-08-22T14:13:47.223Z,30.80
2022-08-22T14:15:45.784Z,30.30
2022-08-22T14:17:43.157Z,30.20
2022-08-22T14:19:41.055Z,29.90
2022-08-22T14:21:53.501Z,29.70
2022-08-22T14:23:52.403Z,29.80
2022-08-22T14:25:45.476Z,29.90
2022-08-22T14:27:55.902Z,30.00
2022-08-22T14:29:54.869Z,30.00
2022-08-22T14:32:01.720Z,29.70
2022-08-22T14:33:57.307Z,29.70
2022-08-22T14:35:54.233Z,29.70
2022-08-22T14:37:50.239Z,29.70
2022-08-22T14:39:48.339Z,29.80
2022-08-22T14:41:55.466Z,29.70
2022-08-22T14:43:55.692Z,29.70
2022-08-22T14:45:56.533Z,29.70
2022-08-22T14:48:09.945Z,29.70
2022-08-22T14:50:29.278Z,29.60
2022-08-22T14:52:35.465Z,29.50
2022-08-22T14:54:30.387Z,29.40
2022-08-22T14:56:26.501Z,29.60
2022-08-22T14:58:26.521Z,29.70
2022-08-22T15:00:30.549Z,29.80
2022-08-22T15:02:26.330Z,29.80
2022-08-22T15:04:27.910Z,29.70
2022-08-22T15:06:33.173Z,29.70
2022-08-22T15:08:30.127Z,29.80
2022-08-22T15:10:26.847Z,29.80
2022-08-22T15:12:28.386Z,29.80
2022-08-22T15:14:28.100Z,29.90
2022-08-22T15:16:29.078Z,30.10
2022-08-22T15:18:33.979Z,30.20
2022-08-22T15:20:34.122Z,30.50
2022-08-22T15:22:28.738Z,30.60
2022-08-22T15:24:20.584Z,30.70
2022-08-22T15:26:23.143Z,30.90
2022-08-22T15:28:20.387Z,31.10
2022-08-22T15:30:20.362Z,31.30
2022-08-22T15:32:12.033Z,31.30
2022-08-22T15:34:12.460Z,31.40
2022-08-22T15:36:15.927Z,31.60
2022-08-22T15:38:24.032Z,31.70
2022-08-22T15:40:40.448Z,31.50
2022-08-22T15:42:36.229Z,31.40
2022-08-22T15:44:33.230Z,31.50
2022-08-22T15:46:33.459Z,31.70
2022-08-22T15:48:30.994Z,31.70
2022-08-22T15:50:32.772Z,31.70
2022-08-22T15:52:28.846Z,31.90
2022-08-22T15:54:25.273Z,32.00
2022-08-22T15:56:27.223Z,32.00
2022-08-22T15:58:23.561Z,32.00
2022-08-22T16:00:28.269Z,31.90
2022-08-22T16:02:33.278Z,31.90
2022-08-22T16:04:43.238Z,32.00
2022-08-22T16:06:44.305Z,32.00
2022-08-22T16:08:49.101Z,31.80
2022-08-22T16:10:45.737Z,31.70
2022-08-22T16:12:40.670Z,31.70
2022-08-22T16:14:49.192Z,31.50
2022-08-22T16:17:03.231Z,31.30
2022-08-22T16:19:19.729Z,31.10
2022-08-22T16:21:11.875Z,31.10
2022-08-22T16:23:07.082Z,31.10
2022-08-22T16:25:10.702Z,31.00
2022-08-22T16:27:20.194Z,30.90
2022-08-22T16:29:35.863Z,30.90
2022-08-22T16:31:37.174Z,30.70
2022-08-22T16:33:30.921Z,30.50
2022-08-22T16:36:21.699Z,30.40
2022-08-22T16:38:24.753Z,30.40
2022-08-22T16:40:23.516Z,30.40
2022-08-22T16:42:35.547Z,30.60
2022-08-22T16:44:43.230Z,30.80
2022-08-22T16:46:39.834Z,30.80
2022-08-22T16:48:37.045Z,30.60
2022-08-22T16:50:38.524Z,30.60
2022-08-22T16:53:03.029Z,30.50
2022-08-22T16:54:58.324Z,30.50
2022-08-22T16:57:08.716Z,30.20
2022-08-22T16:59:29.493Z,30.10
2022-08-22T17:01:51.759Z,30.10
2022-08-22T17:03:57.530Z,30.00
2022-08-22T17:06:03.849Z,30.00
2022-08-22T17:08:13.032Z,29.90
2022-08-22T17:10:41.045Z,29.90
2022-08-22T17:13:03.204Z,30.00
2022-08-22T17:15:06.733Z,30.00
2022-08-22T17:17:24.575Z,30.00
2022-08-22T17:19:39.653Z,30.10
2022-08-22T17:21:50.657Z,30.20
2022-08-22T17:23:53.663Z,30.30
2022-08-22T17:25:59.924Z,30.30
2022-08-22T17:28:06.057Z,30.50
2022-08-22T17:30:07.539Z,30.50
2022-08-22T17:32:15.130Z,30.50
2022-08-22T17:34:32.840Z,30.40
2022-08-22T17:36:34.178Z,30.40
2022-08-22T17:38:45.425Z,30.40
2022-08-22T17:40:50.899Z,30.50
2022-08-22T17:43:02.578Z,30.50
2022-08-22T17:45:02.552Z,30.60
2022-08-22T17:47:00.741Z,30.40
2022-08-22T17:48:59.337Z,30.30
2022-08-22T17:50:54.953Z,30.30
2022-08-22T17:52:51.214Z,30.20
2022-08-22T17:54:55.658Z,30.10
2022-08-22T17:57:00.460Z,29.90
2022-08-22T17:59:07.154Z,29.80
2022-08-22T18:01:07.847Z,29.80
2022-08-22T18:03:07.802Z,29.70
2022-08-22T18:05:07.392Z,29.60
2022-08-22T18:07:21.484Z,29.40
2022-08-22T18:09:28.363Z,29.30
2022-08-22T18:11:25.115Z,29.20
2022-08-22T18:13:37.127Z,29.00
2022-08-22T18:15:41.002Z,29.00
2022-08-22T18:17:35.477Z,28.70
2022-08-22T18:19:44.067Z,28.70
2022-08-22T18:21:41.842Z,28.60
2022-08-22T18:23:40.185Z,28.50
2022-08-22T18:25:41.462Z,28.50
2022-08-22T18:27:38.007Z,28.20
2022-08-22T18:29:43.099Z,28.10
2022-08-22T18:31:47.697Z,28.00
2022-08-22T18:33:45.367Z,27.90
2022-08-22T18:35:49.957Z,27.90
2022-08-22T18:37:57.643Z,27.80
2022-08-22T18:39:54.923Z,27.70
2022-08-22T18:41:50.652Z,27.60
2022-08-22T18:43:46.433Z,27.50
2022-08-22T18:46:03.848Z,27.40
2022-08-22T18:47:57.461Z,27.30
2022-08-22T18:49:51.757Z,27.30
2022-08-22T18:51:43.989Z,27.20
2022-08-22T18:53:37.767Z,27.20
2022-08-22T18:55:49.821Z,27.20
2022-08-22T18:58:08.672Z,27.20
2022-08-22T19:00:07.754Z,27.10
2022-08-22T19:02:17.057Z,27.20
2022-08-22T19:04:41.226Z,27.10
2022-08-22T19:07:14.660Z,27.10
2022-08-22T19:09:52.138Z,27.20
2022-08-22T19:11:59.012Z,27.10
2022-08-22T19:14:18.260Z,27.00
2022-08-22T19:16:36.820Z,26.90
2022-08-22T19:18:40.655Z,26.90
2022-08-22T19:20:37.164Z,26.80
2022-08-22T19:22:30.457Z,26.80
2022-08-22T19:25:02.190Z,26.80
2022-08-22T19:27:30.873Z,26.80
2022-08-22T19:29:56.630Z,26.80
2022-08-22T19:31:50.466Z,26.90
2022-08-22T19:33:47.031Z,26.80
2022-08-22T19:35:46.371Z,26.60
2022-08-22T19:37:52.919Z,26.50
2022-08-22T19:39:56.552Z,26.40
2022-08-22T19:41:51.633Z,26.40
2022-08-22T19:43:44.199Z,26.50
2022-08-22T19:45:49.462Z,26.60
2022-08-22T19:47:45.800Z,26.60
2022-08-22T19:49:45.038Z,26.60
2022-08-22T19:51:36.091Z,26.60
2022-08-22T19:53:41.867Z,26.60
2022-08-22T19:55:53.871Z,26.50
2022-08-22T19:57:56.544Z,26.30
2022-08-22T20:00:01.406Z,25.90
2022-08-22T20:02:07.035Z,25.80
2022-08-22T20:04:05.394Z,25.90
2022-08-22T20:06:13.760Z,25.90
2022-08-22T20:08:43.356Z,25.80
2022-08-22T20:10:48.485Z,25.70
2022-08-22T20:12:55.992Z,25.70
2022-08-22T20:14:49.279Z,25.70
2022-08-22T20:17:09.938Z,25.70
2022-08-22T20:19:19.854Z,25.70
2022-08-22T20:21:10.821Z,25.70
2022-08-22T20:23:12.573Z,25.70
2022-08-22T20:25:17.132Z,25.70
2022-08-22T20:27:31.939Z,25.70
2022-08-22T20:29:28.371Z,25.50
2022-08-22T20:31:24.226Z,25.60
2022-08-22T20:33:28.782Z,25.60
2022-08-22T20:35:25.665Z,25.60
2022-08-22T20:37:40.402Z,25.70
2022-08-22T20:39:50.108Z,25.60
2022-08-22T20:42:00.088Z,25.60
2022-08-22T20:43:54.244Z,25.50
2022-08-22T20:46:00.582Z,25.60
2022-08-22T20:47:56.150Z,25.60
2022-08-22T20:49:53.510Z,25.50
2022-08-22T20:51:54.934Z,25.50
2022-08-22T20:53:53.999Z,25.40
2022-08-22T20:56:00.520Z,25.50
2022-08-22T20:57:56.160Z,25.40
2022-08-22T20:59:53.652Z,25.40
2022-08-22T21:01:45.314Z,25.40
2022-08-22T21:03:44.556Z,25.30
2022-08-22T21:05:42.262Z,25.20
2022-08-22T21:07:36.889Z,25.20
2022-08-22T21:09:29.093Z,25.10
2022-08-22T21:11:24.355Z,25.00
2022-08-22T21:13:19.622Z,24.90
2022-08-22T21:15:10.438Z,24.80
2022-08-22T21:17:20.228Z,24.70
2022-08-22T21:19:23.819Z,24.60
2022-08-22T21:21:20.585Z,24.60
2022-08-22T21:23:14.913Z,24.50
2022-08-22T21:25:08.078Z,24.60
2022-08-22T21:27:03.591Z,24.60
2022-08-22T21:29:02.553Z,24.70
2022-08-22T21:30:57.748Z,24.70
2022-08-22T21:32:55.168Z,24.70
2022-08-22T21:34:49.944Z,24.60
2022-08-22T21:36:41.361Z,24.60
2022-08-22T21:38:32.090Z,24.70
2022-08-22T21:40:30.667Z,24.70
2022-08-22T21:42:25.656Z,24.70
2022-08-22T21:44:28.529Z,24.50
2022-08-22T21:46:27.541Z,24.30
2022-08-22T21:48:39.231Z,24.30
2022-08-22T21:50:33.951Z,24.20
2022-08-22T21:52:28.889Z,24.10
2022-08-22T21:54:39.233Z,24.00
2022-08-22T21:56:30.126Z,24.00
2022-08-22T21:58:35.572Z,24.00
2022-08-22T22:00:51.344Z,23.90
2022-08-22T22:02:43.773Z,24.00
2022-08-22T22:04:34.465Z,24.00
2022-08-22T22:06:27.805Z,23.90
2022-08-22T22:08:18.896Z,23.90
2022-08-22T22:10:14.513Z,23.90
2022-08-22T22:12:05.991Z,23.80
2022-08-22T22:13:56.550Z,23.80
2022-08-22T22:15:52.676Z,23.80
2022-08-22T22:17:43.395Z,23.80
2022-08-22T22:19:34.716Z,23.70
2022-08-22T22:21:27.483Z,23.70
2022-08-22T22:23:18.491Z,23.70
2022-08-22T22:25:41.226Z,23.70
2022-08-22T22:27:22.708Z,23.70
2022-08-22T22:29:17.091Z,23.70
2022-08-22T22:31:13.049Z,23.60
2022-08-22T22:33:04.420Z,23.60
2022-08-22T22:34:55.287Z,23.60
2022-08-22T22:36:47.659Z,23.70
2022-08-22T22:38:40.277Z,23.70
2022-08-22T22:40:32.108Z,23.70
2022-08-22T22:42:24.857Z,23.60
2022-08-22T22:44:15.567Z,23.50
2022-08-22T22:46:06.682Z,23.50
2022-08-22T22:47:59.211Z,23.50
2022-08-22T22:49:57.607Z,23.60
2022-08-22T22:51:53.092Z,23.70
2022-08-22T22:53:43.864Z,23.70
2022-08-22T22:55:35.474Z,23.60
2022-08-22T22:57:29.090Z,23.50
2022-08-22T22:59:20.372Z,23.50
2022-08-22T23:01:20.655Z,23.50
2022-08-22T23:03:11.777Z,23.40
2022-08-22T23:05:07.645Z,23.30
2022-08-22T23:07:04.865Z,23.30
2022-08-22T23:08:57.434Z,23.30
2022-08-22T23:10:50.803Z,23.20
2022-08-22T23:12:41.834Z,23.20
2022-08-22T23:14:33.523Z,23.10
2022-08-22T23:16:31.147Z,23.10
2022-08-22T23:18:30.290Z,23.10
2022-08-22T23:20:21.814Z,23.10
2022-08-22T23:22:14.647Z,23.10
2022-08-22T23:24:06.183Z,23.00
2022-08-22T23:25:57.649Z,23.10
2022-08-22T23:27:52.541Z,23.10
2022-08-22T23:29:45.096Z,23.10
2022-08-22T23:31:39.949Z,23.20
2022-08-22T23:33:35.395Z,23.30
2022-08-22T23:35:26.710Z,23.40
2022-08-22T23:37:22.223Z,23.30
2022-08-22T23:39:15.361Z,23.20
2022-08-22T23:41:10.003Z,23.20
2022-08-22T23:43:01.994Z,23.00
2022-08-22T23:44:53.209Z,22.80
2022-08-22T23:46:45.775Z,22.80
2022-08-22T23:48:37.356Z,23.00
2022-08-22T23:50:28.508Z,23.10
2022-08-22T23:52:21.797Z,23.20
2022-08-22T23:54:13.918Z,23.10
2022-08-22T23:56:10.693Z,23.10
2022-08-22T23:58:11.491Z,23.10
